createdAt,value
2023-08-14T00:01:59.201Z,9.50
2023-08-14T00:04:25.758Z,13.57
2023-08-14T00:06:52.313Z,16.97
2023-08-14T00:09:18.952Z,10.43
2023-08-14T00:11:45.493Z,8.17
2023-08-14T00:14:12.005Z,9.17
2023-08-14T00:16:38.624Z,11.27
2023-08-14T00:19:05.244Z,8.03
2023-08-14T00:21:31.823Z,9.47
2023-08-14T00:23:58.334Z,7.17
2023-08-14T00:26:24.844Z,9.03
2023-08-14T00:28:51.356Z,10.27
2023-08-14T00:31:18.274Z,8.70
2023-08-14T00:33:45.071Z,11.37
2023-08-14T00:36:11.856Z,9.90
2023-08-14T00:38:38.388Z,9.47
2023-08-14T00:41:05.037Z,9.43
2023-08-14T00:43:31.666Z,6.77
2023-08-14T00:45:58.617Z,7.13
2023-08-14T00:48:26.312Z,8.60
2023-08-14T00:50:54.584Z,9.63
2023-08-14T00:53:21.314Z,12.13
2023-08-14T00:55:48.259Z,9.03
2023-08-14T00:58:15.015Z,16.23
2023-08-14T01:00:43.302Z,8.20
2023-08-14T01:03:10.025Z,7.53
2023-08-14T01:05:37.254Z,10.07
2023-08-14T01:08:03.990Z,12.40
2023-08-14T01:10:47.130Z,10.40
2023-08-14T01:13:32.113Z,9.30
2023-08-14T01:16:00.153Z,9.40
2023-08-14T01:18:27.873Z,7.47
2023-08-14T01:21:05.070Z,9.63
2023-08-14T01:23:43.414Z,9.37
2023-08-14T01:26:10.180Z,8.83
2023-08-14T01:28:36.880Z,11.13
2023-08-14T01:31:03.486Z,12.33
2023-08-14T01:33:30.076Z,9.23
2023-08-14T01:36:04.639Z,8.80
2023-08-14T01:38:40.913Z,10.00
2023-08-14T01:41:15.069Z,8.67
2023-08-14T01:43:46.267Z,12.27
2023-08-14T01:46:13.634Z,9.43
2023-08-14T01:48:41.268Z,8.43
2023-08-14T01:51:08.448Z,8.77
2023-08-14T01:53:36.662Z,12.23
2023-08-14T01:56:03.467Z,9.10
2023-08-14T01:58:31.152Z,8.37
2023-08-14T02:00:57.665Z,9.40
2023-08-14T02:03:24.397Z,7.77
2023-08-14T02:05:51.027Z,9.00
2023-08-14T02:08:17.573Z,8.80
2023-08-14T02:10:44.076Z,11.43
2023-08-14T02:13:10.605Z,11.73
2023-08-14T02:15:37.123Z,9.10
2023-08-14T02:18:04.081Z,11.83
2023-08-14T02:20:30.769Z,11.17
2023-08-14T02:22:57.290Z,11.93
2023-08-14T02:25:23.767Z,12.87
2023-08-14T02:27:50.417Z,11.57
2023-08-14T02:30:17.020Z,14.37
2023-08-14T02:32:43.572Z,12.30
2023-08-14T02:35:10.147Z,11.73
2023-08-14T02:37:36.698Z,10.37
2023-08-14T02:40:04.807Z,11.97
2023-08-14T02:42:31.416Z,10.53
2023-08-14T02:44:58.009Z,8.73
2023-08-14T02:47:24.548Z,13.63
2023-08-14T02:49:51.070Z,10.53
2023-08-14T02:52:17.864Z,16.97
2023-08-14T02:54:44.605Z,17.13
2023-08-14T02:57:11.183Z,11.83
2023-08-14T02:59:37.754Z,13.70
2023-08-14T03:02:04.364Z,17.63
2023-08-14T03:04:31.233Z,11.60
2023-08-14T03:06:57.925Z,14.80
2023-08-14T03:09:24.420Z,13.07
2023-08-14T03:11:50.987Z,14.83
2023-08-14T03:14:17.486Z,13.30
2023-08-14T03:16:44.096Z,14.97
2023-08-14T03:19:10.697Z,15.30
2023-08-14T03:21:38.405Z,13.13
2023-08-14T03:24:06.878Z,15.27
2023-08-14T03:26:33.941Z,16.03
2023-08-14T03:29:00.555Z,14.50
2023-08-14T03:31:27.363Z,14.00
2023-08-14T03:33:53.952Z,16.33
2023-08-14T03:36:20.608Z,12.90
2023-08-14T03:38:47.281Z,18.90
2023-08-14T03:41:14.279Z,11.73
2023-08-14T03:43:40.864Z,18.03
2023-08-14T03:46:07.588Z,12.40
2023-08-14T03:48:35.829Z,14.53
2023-08-14T03:51:02.407Z,17.73
2023-08-14T03:53:29.065Z,12.63
2023-08-14T03:55:55.826Z,12.70
2023-08-14T03:58:22.558Z,14.47
2023-08-14T04:00:49.056Z,16.53
2023-08-14T04:03:16.011Z,17.27
2023-08-14T04:05:43.475Z,13.30
2023-08-14T04:08:10.381Z,14.20
2023-08-14T04:10:38.399Z,15.67
2023-08-14T04:13:05.314Z,15.90
2023-08-14T04:15:32.860Z,17.37
2023-08-14T04:17:59.613Z,16.30
2023-08-14T04:20:26.172Z,15.13
2023-08-14T04:22:52.750Z,18.57
2023-08-14T04:25:21.172Z,16.53
2023-08-14T04:27:47.753Z,17.43
2023-08-14T04:30:14.824Z,13.17
2023-08-14T04:32:42.209Z,20.80
2023-08-14T04:35:09.668Z,15.70
2023-08-14T04:37:36.726Z,16.63
2023-08-14T04:40:05.872Z,12.97
2023-08-14T04:42:33.884Z,21.73
2023-08-14T04:45:00.671Z,12.73
2023-08-14T04:47:27.336Z,18.73
2023-08-14T04:49:54.055Z,16.17
2023-08-14T04:52:21.818Z,18.50
2023-08-14T04:54:48.454Z,14.90
2023-08-14T04:57:14.991Z,18.23
2023-08-14T04:59:41.530Z,18.00
2023-08-14T05:02:08.223Z,14.23
2023-08-14T05:04:35.378Z,16.83
2023-08-14T05:07:02.533Z,14.20
2023-08-14T05:09:29.135Z,17.17
2023-08-14T05:11:55.725Z,14.87
2023-08-14T05:14:22.360Z,14.83
2023-08-14T05:16:49.030Z,17.00
2023-08-14T05:19:15.682Z,14.00
2023-08-14T05:21:42.949Z,18.90
2023-08-14T05:24:10.111Z,15.20
2023-08-14T05:26:36.912Z,16.80
2023-08-14T05:29:03.705Z,15.23
2023-08-14T05:31:30.341Z,14.47
2023-08-14T05:33:57.252Z,13.20
2023-08-14T05:36:23.787Z,16.10
2023-08-14T05:38:50.743Z,13.90
2023-08-14T05:41:18.082Z,15.50
2023-08-14T05:43:44.720Z,18.03
2023-08-14T05:46:11.410Z,15.83
2023-08-14T05:48:38.001Z,13.50
2023-08-14T05:51:04.599Z,13.37
2023-08-14T05:53:31.895Z,12.50
2023-08-14T05:55:58.430Z,14.37
2023-08-14T05:58:24.989Z,10.60
2023-08-14T06:00:51.902Z,12.83
2023-08-14T06:03:25.936Z,17.67
2023-08-14T06:05:56.187Z,11.70
2023-08-14T06:08:22.791Z,12.00
2023-08-14T06:10:49.342Z,13.27
2023-08-14T06:13:16.017Z,12.57
2023-08-14T06:15:42.738Z,10.77
2023-08-14T06:18:09.320Z,12.57
2023-08-14T06:20:37.015Z,16.00
2023-08-14T06:23:03.660Z,10.18
2023-08-14T06:25:32.563Z,14.38
2023-08-14T06:27:59.083Z,12.90
2023-08-14T06:30:26.566Z,13.65
2023-08-14T06:32:53.234Z,11.85
2023-08-14T06:35:19.849Z,12.38
2023-08-14T06:37:46.512Z,8.70
2023-08-14T06:40:13.440Z,10.50
2023-08-14T06:42:40.010Z,13.25
2023-08-14T06:45:07.202Z,9.23
2023-08-14T06:47:33.825Z,11.80
2023-08-14T06:50:00.437Z,15.82
2023-08-14T06:52:26.954Z,11.60
2023-08-14T06:54:53.764Z,12.60
2023-08-14T06:57:20.379Z,9.35
2023-08-14T06:59:46.990Z,12.98
2023-08-14T07:02:14.053Z,13.30
2023-08-14T07:04:40.775Z,9.38
2023-08-14T07:07:07.328Z,13.88
2023-08-14T07:09:35.407Z,9.60
2023-08-14T07:12:01.990Z,7.63
2023-08-14T07:14:31.171Z,10.93
2023-08-14T07:16:58.034Z,8.80
2023-08-14T07:19:24.607Z,12.07
2023-08-14T07:21:51.097Z,10.95
2023-08-14T07:24:17.659Z,9.48
2023-08-14T07:26:44.452Z,10.43
2023-08-14T07:29:11.080Z,8.05
2023-08-14T07:31:37.842Z,8.00
2023-08-14T07:34:04.582Z,11.88
2023-08-14T07:36:31.884Z,10.18
2023-08-14T07:38:58.396Z,11.82
2023-08-14T07:41:24.959Z,10.05
2023-08-14T07:43:51.511Z,12.43
2023-08-14T07:46:19.533Z,9.25
2023-08-14T07:48:46.230Z,6.28
2023-08-14T07:51:12.860Z,7.47
2023-08-14T07:53:40.327Z,6.72
2023-08-14T07:56:06.857Z,8.98
2023-08-14T07:58:33.447Z,10.52
2023-08-14T08:01:00.107Z,7.45
2023-08-14T08:03:26.672Z,9.82
2023-08-14T08:05:53.475Z,7.32
2023-08-14T08:08:20.017Z,5.20
2023-08-14T08:10:46.652Z,4.68
2023-08-14T08:13:13.385Z,7.25
2023-08-14T08:15:40.006Z,5.97
2023-08-14T08:18:06.615Z,8.10
2023-08-14T08:20:33.304Z,9.57
2023-08-14T08:22:59.834Z,6.68
2023-08-14T08:25:26.542Z,4.82
2023-08-14T08:27:53.088Z,8.23
2023-08-14T08:30:19.928Z,15.23
2023-08-14T08:32:46.731Z,5.05
2023-08-14T08:35:14.219Z,4.82
2023-08-14T08:37:42.574Z,6.88
2023-08-14T08:40:09.737Z,4.20
2023-08-14T08:42:37.502Z,4.97
2023-08-14T08:45:05.378Z,5.30
2023-08-14T08:47:36.163Z,10.77
2023-08-14T08:50:04.561Z,5.47
2023-08-14T08:52:35.380Z,8.13
2023-08-14T08:55:02.953Z,7.72
2023-08-14T08:57:30.115Z,6.43
2023-08-14T08:59:59.014Z,7.00
2023-08-14T09:02:25.907Z,10.65
2023-08-14T09:04:52.571Z,8.73
2023-08-14T09:07:19.288Z,7.15
2023-08-14T09:09:46.154Z,7.53
2023-08-14T09:12:13.252Z,7.60
2023-08-14T09:14:47.083Z,7.00
2023-08-14T09:17:14.647Z,7.20
2023-08-14T09:19:43.139Z,8.40
2023-08-14T09:22:09.759Z,8.77
2023-08-14T09:24:40.604Z,6.40
2023-08-14T09:27:07.372Z,8.68
2023-08-14T09:29:35.315Z,6.57
2023-08-14T09:32:02.664Z,11.90
2023-08-14T09:34:31.413Z,8.43
2023-08-14T09:36:58.814Z,5.97
2023-08-14T09:39:25.510Z,8.48
2023-08-14T09:41:52.119Z,6.70
2023-08-14T09:44:22.513Z,6.50
2023-08-14T09:46:50.466Z,8.32
2023-08-14T09:49:17.895Z,9.98
2023-08-14T09:51:54.784Z,8.15
2023-08-14T09:54:32.569Z,8.15
2023-08-14T09:57:00.838Z,6.80
2023-08-14T09:59:28.165Z,7.63
2023-08-14T10:01:55.801Z,10.48
2023-08-14T10:04:23.590Z,9.27
2023-08-14T10:06:52.091Z,8.13
2023-08-14T10:09:22.290Z,9.43
2023-08-14T10:11:49.438Z,7.30
2023-08-14T10:14:16.643Z,12.30
2023-08-14T10:16:43.843Z,6.25
2023-08-14T10:19:14.361Z,9.88
2023-08-14T10:21:41.913Z,10.20
2023-08-14T10:24:08.998Z,8.60
2023-08-14T10:26:37.409Z,18.00
2023-08-14T10:29:04.847Z,14.48
2023-08-14T10:31:31.890Z,11.23
2023-08-14T10:33:59.345Z,6.97
2023-08-14T10:36:29.450Z,7.97
2023-08-14T10:39:02.895Z,11.35
2023-08-14T10:41:33.926Z,8.77
2023-08-14T10:44:08.351Z,10.18
2023-08-14T10:46:42.846Z,9.32
2023-08-14T10:49:12.795Z,16.23
2023-08-14T10:51:42.099Z,8.80
2023-08-14T10:54:17.732Z,9.98
2023-08-14T10:56:47.225Z,6.07
2023-08-14T10:59:24.771Z,10.02
2023-08-14T11:01:53.649Z,8.68
2023-08-14T11:04:20.255Z,9.43
2023-08-14T11:07:03.075Z,8.00
2023-08-14T11:09:33.530Z,7.55
2023-08-14T11:12:09.110Z,9.75
2023-08-14T11:14:42.192Z,7.82
2023-08-14T11:17:10.044Z,6.13
2023-08-14T11:19:38.552Z,7.15
2023-08-14T11:22:05.421Z,5.93
2023-08-14T11:24:33.561Z,5.95
2023-08-14T11:27:01.693Z,5.10
2023-08-14T11:29:30.865Z,8.55
2023-08-14T11:32:00.180Z,5.13
2023-08-14T11:34:26.764Z,9.35
2023-08-14T11:39:32.637Z,6.70
2023-08-14T11:41:59.206Z,8.93
2023-08-14T11:44:26.032Z,6.25
2023-08-14T11:46:53.756Z,6.70
2023-08-14T11:49:20.674Z,7.78
2023-08-14T11:51:47.667Z,7.55
2023-08-14T11:54:14.589Z,6.05
2023-08-14T11:56:41.549Z,5.60
2023-08-14T11:59:08.394Z,7.32
2023-08-14T12:01:37.655Z,9.32
2023-08-14T12:04:05.951Z,6.15
2023-08-14T12:06:33.311Z,5.05
2023-08-14T12:09:03.744Z,9.48
2023-08-14T12:11:30.407Z,8.55
2023-08-14T12:13:56.966Z,7.03
2023-08-14T12:16:26.865Z,6.18
2023-08-14T12:18:55.093Z,7.90
2023-08-14T12:21:21.698Z,6.45
2023-08-14T12:23:50.078Z,7.22
2023-08-14T12:26:16.748Z,6.50
2023-08-14T12:28:44.237Z,6.85
2023-08-14T12:31:11.672Z,4.97
2023-08-14T12:33:45.182Z,5.40
2023-08-14T12:36:13.827Z,6.18
2023-08-14T12:38:40.386Z,6.35
2023-08-14T12:41:06.944Z,7.57
2023-08-14T12:43:40.387Z,6.22
2023-08-14T12:46:10.278Z,6.55
2023-08-14T12:48:37.278Z,6.13
2023-08-14T12:51:04.844Z,6.97
2023-08-14T12:53:31.510Z,9.38
2023-08-14T12:56:03.634Z,5.78
2023-08-14T12:58:31.285Z,6.70
2023-08-14T13:01:04.496Z,5.35
2023-08-14T13:06:01.820Z,6.97
2023-08-14T13:08:28.365Z,5.30
2023-08-14T13:10:54.895Z,9.77
2023-08-14T13:13:24.976Z,7.38
2023-08-14T13:15:51.892Z,8.30
2023-08-14T13:18:18.673Z,7.63
2023-08-14T13:20:45.230Z,10.77
2023-08-14T13:23:11.748Z,6.47
2023-08-14T13:25:42.379Z,6.75
2023-08-14T13:28:09.598Z,7.22
2023-08-14T13:30:36.821Z,8.67
2023-08-14T13:33:03.701Z,7.13
2023-08-14T13:35:30.210Z,5.13
2023-08-14T13:37:56.749Z,6.95
2023-08-14T13:40:23.609Z,6.30
2023-08-14T13:42:50.153Z,8.30
2023-08-14T13:45:19.009Z,4.90
2023-08-14T13:47:54.177Z,6.78
2023-08-14T13:50:33.061Z,4.65
2023-08-14T13:53:03.772Z,6.03
2023-08-14T13:55:35.168Z,5.90
2023-08-14T13:58:02.380Z,8.63
2023-08-14T14:00:30.798Z,7.85
2023-08-14T14:02:59.423Z,4.95
2023-08-14T14:05:26.844Z,5.07
2023-08-14T14:07:55.880Z,9.68
2023-08-14T14:10:24.992Z,6.32
2023-08-14T14:15:21.303Z,10.65
2023-08-14T14:17:48.071Z,6.38
2023-08-14T14:20:16.705Z,6.40
2023-08-14T14:22:43.462Z,9.18
2023-08-14T14:25:10.100Z,9.57
2023-08-14T14:27:36.680Z,5.63
2023-08-14T14:30:03.329Z,5.85
2023-08-14T14:32:29.919Z,8.45
2023-08-14T14:34:56.453Z,6.35
2023-08-14T14:37:23.035Z,5.93
2023-08-14T14:39:49.688Z,5.25
2023-08-14T14:42:16.366Z,8.65
2023-08-14T14:44:44.182Z,4.32
2023-08-14T14:47:10.651Z,8.02
2023-08-14T14:49:37.135Z,5.25
2023-08-14T14:52:04.190Z,8.05
2023-08-14T14:54:30.720Z,12.00
2023-08-14T14:56:57.270Z,4.72
2023-08-14T14:59:23.907Z,10.50
2023-08-14T15:01:50.491Z,6.20
2023-08-14T15:04:16.997Z,10.13
2023-08-14T15:06:43.516Z,9.98
2023-08-14T15:09:10.073Z,4.90
2023-08-14T15:11:36.741Z,8.45
2023-08-14T15:14:03.395Z,4.93
2023-08-14T15:16:31.508Z,11.60
2023-08-14T15:18:59.925Z,12.50
2023-08-14T15:21:26.559Z,5.40
2023-08-14T15:23:53.134Z,6.65
2023-08-14T15:26:20.275Z,5.90
2023-08-14T15:28:47.089Z,10.25
2023-08-14T15:31:13.666Z,7.53
2023-08-14T15:33:40.227Z,5.07
2023-08-14T15:36:06.756Z,6.68
2023-08-14T15:38:33.290Z,9.43
2023-08-14T15:40:59.875Z,5.65
2023-08-14T15:43:26.904Z,9.10
2023-08-14T15:46:04.514Z,8.10
2023-08-14T15:48:31.144Z,10.98
2023-08-14T15:50:57.677Z,6.35
2023-08-14T15:53:24.232Z,7.40
2023-08-14T15:55:50.803Z,6.57
2023-08-14T15:58:17.348Z,7.18
2023-08-14T16:00:45.127Z,5.75
2023-08-14T16:03:12.193Z,8.40
2023-08-14T16:05:39.035Z,4.60
2023-08-14T16:08:06.459Z,5.68
2023-08-14T16:10:32.989Z,8.82
2023-08-14T16:12:59.605Z,8.32
2023-08-14T16:15:26.127Z,8.30
2023-08-14T16:17:52.840Z,6.80
2023-08-14T16:20:19.429Z,8.20
2023-08-14T16:22:45.949Z,8.05
2023-08-14T16:25:12.752Z,6.28
2023-08-14T16:27:39.379Z,5.07
2023-08-14T16:30:06.629Z,7.03
2023-08-14T16:32:33.219Z,9.02
2023-08-14T16:34:59.859Z,8.02
2023-08-14T16:37:26.556Z,9.68
2023-08-14T16:39:53.063Z,13.00
2023-08-14T16:42:19.638Z,6.90
2023-08-14T16:44:46.213Z,9.07
2023-08-14T16:47:13.769Z,4.95
2023-08-14T16:49:40.357Z,7.68
2023-08-14T16:52:06.990Z,10.93
2023-08-14T16:54:33.533Z,9.93
2023-08-14T16:57:00.041Z,9.30
2023-08-14T16:59:26.714Z,8.48
2023-08-14T17:01:53.312Z,9.98
2023-08-14T17:04:19.880Z,6.90
2023-08-14T17:06:46.444Z,5.75
2023-08-14T17:09:14.904Z,11.70
2023-08-14T17:11:41.955Z,8.88
2023-08-14T17:14:08.621Z,10.60
2023-08-14T17:16:36.666Z,9.00
2023-08-14T17:19:03.514Z,10.63
2023-08-14T17:21:30.148Z,8.70
2023-08-14T17:23:56.788Z,9.73
2023-08-14T17:26:23.487Z,8.57
2023-08-14T17:28:50.137Z,4.95
2023-08-14T17:31:16.810Z,7.00
2023-08-14T17:33:43.391Z,8.20
2023-08-14T17:36:10.529Z,6.85
2023-08-14T17:38:37.291Z,5.93
2023-08-14T17:41:04.386Z,7.50
2023-08-14T17:43:31.050Z,5.00
2023-08-14T17:45:58.713Z,6.63
2023-08-14T17:48:25.534Z,5.90
2023-08-14T17:50:53.094Z,9.98
2023-08-14T17:53:20.196Z,10.27
2023-08-14T17:55:46.801Z,7.10
2023-08-14T17:58:13.493Z,7.72
2023-08-14T18:00:46.978Z,7.72
2023-08-14T18:03:13.941Z,5.53
2023-08-14T18:05:40.556Z,9.93
2023-08-14T18:08:07.170Z,5.60
2023-08-14T18:10:33.650Z,9.45
2023-08-14T18:13:00.228Z,10.60
2023-08-14T18:15:26.731Z,5.38
2023-08-14T18:17:53.401Z,7.13
2023-08-14T18:20:20.073Z,5.60
2023-08-14T18:22:47.831Z,7.72
2023-08-14T18:25:14.445Z,5.57
2023-08-14T18:27:41.052Z,4.93
2023-08-14T18:30:09.913Z,6.45
2023-08-14T18:32:38.389Z,9.50
2023-08-14T18:35:05.345Z,7.10
2023-08-14T18:37:31.876Z,10.77
2023-08-14T18:39:58.577Z,11.00
2023-08-14T18:42:25.444Z,11.35
2023-08-14T18:44:52.006Z,6.88
2023-08-14T18:47:18.876Z,9.82
2023-08-14T18:49:46.892Z,10.57
2023-08-14T18:52:13.899Z,8.38
2023-08-14T18:54:42.826Z,5.87
2023-08-14T18:57:11.698Z,9.45
2023-08-14T18:59:45.285Z,7.15
2023-08-14T19:02:12.028Z,9.77
2023-08-14T19:04:43.151Z,8.83
2023-08-14T19:07:10.449Z,6.40
2023-08-14T19:09:37.013Z,9.38
2023-08-14T19:12:05.343Z,12.63
2023-08-14T19:14:31.987Z,8.63
2023-08-14T19:16:58.670Z,12.18
2023-08-14T19:19:25.216Z,10.98
2023-08-14T19:21:51.808Z,7.47
2023-08-14T19:24:18.585Z,11.43
2023-08-14T19:26:46.368Z,10.88
2023-08-14T19:29:13.079Z,13.02
2023-08-14T19:31:39.661Z,9.75
2023-08-14T19:34:06.287Z,8.55
2023-08-14T19:36:35.200Z,9.02
2023-08-14T19:39:02.108Z,7.95
2023-08-14T19:41:28.747Z,9.55
2023-08-14T19:43:56.145Z,7.05
2023-08-14T19:46:22.803Z,8.27
2023-08-14T19:48:49.442Z,10.27
2023-08-14T19:51:16.060Z,9.25
2023-08-14T19:53:42.768Z,11.77
2023-08-14T19:56:09.411Z,10.77
2023-08-14T19:58:36.595Z,13.93
2023-08-14T20:01:03.302Z,9.75
2023-08-14T20:03:30.571Z,13.02
2023-08-14T20:05:57.325Z,16.73
2023-08-14T20:08:24.620Z,15.15
2023-08-14T20:10:51.576Z,11.27
2023-08-14T20:13:18.558Z,9.57
2023-08-14T20:15:48.138Z,16.33
2023-08-14T20:18:15.498Z,10.48
2023-08-14T20:20:43.505Z,8.25
2023-08-14T20:23:10.851Z,10.75
2023-08-14T20:25:38.196Z,12.40
2023-08-14T20:28:05.674Z,12.98
2023-08-14T20:30:33.494Z,8.70
2023-08-14T20:33:00.132Z,16.42
2023-08-14T20:35:26.728Z,12.10
2023-08-14T20:37:53.251Z,9.98
2023-08-14T20:40:19.785Z,13.20
2023-08-14T20:42:46.650Z,16.13
2023-08-14T20:45:15.986Z,9.82
2023-08-14T20:47:42.521Z,10.57
2023-08-14T20:50:09.582Z,15.30
2023-08-14T20:52:36.621Z,14.60
2023-08-14T20:55:03.268Z,14.10
2023-08-14T20:57:30.169Z,13.03
2023-08-14T20:59:56.827Z,11.60
2023-08-14T21:02:23.466Z,9.63
2023-08-14T21:04:50.071Z,9.40
2023-08-14T21:07:16.695Z,12.15
2023-08-14T21:09:43.243Z,10.60
2023-08-14T21:12:09.956Z,10.80
2023-08-14T21:14:36.568Z,9.18
2023-08-14T21:17:03.091Z,11.90
2023-08-14T21:19:29.569Z,12.77
2023-08-14T21:21:56.061Z,13.45
2023-08-14T21:24:22.556Z,9.80
2023-08-14T21:26:49.095Z,12.27
2023-08-14T21:29:15.622Z,12.90
2023-08-14T21:31:42.231Z,12.40
2023-08-14T21:34:13.614Z,12.15
2023-08-14T21:36:40.155Z,14.35
2023-08-14T21:39:06.743Z,16.30
2023-08-14T21:41:33.303Z,15.45
2023-08-14T21:43:59.852Z,13.83
2023-08-14T21:46:29.915Z,14.77
2023-08-14T21:48:56.860Z,18.97
2023-08-14T21:51:24.172Z,16.80
2023-08-14T21:53:50.794Z,13.40
2023-08-14T21:56:17.447Z,13.27
2023-08-14T21:58:44.091Z,18.45
2023-08-14T22:01:10.649Z,19.05
2023-08-14T22:03:37.251Z,14.73
2023-08-14T22:06:04.388Z,15.13
2023-08-14T22:08:31.380Z,12.20
2023-08-14T22:10:58.511Z,9.77
2023-08-14T22:13:25.322Z,10.90
2023-08-14T22:15:51.943Z,18.27
2023-08-14T22:18:19.134Z,12.07
2023-08-14T22:20:46.287Z,12.97
2023-08-14T22:23:14.032Z,17.50
2023-08-14T22:25:42.303Z,18.73
2023-08-14T22:28:08.951Z,18.33
2023-08-14T22:30:36.367Z,14.15
2023-08-14T22:33:04.981Z,18.08
2023-08-14T22:35:31.817Z,13.82
2023-08-14T22:37:58.390Z,12.05
2023-08-14T22:40:26.020Z,13.48
2023-08-14T22:42:52.566Z,12.15
2023-08-14T22:45:19.193Z,13.33
2023-08-14T22:47:45.766Z,17.43
2023-08-14T22:50:12.522Z,15.40
2023-08-14T22:52:39.098Z,12.88
2023-08-14T22:55:05.898Z,13.40
2023-08-14T22:57:32.405Z,15.02
2023-08-14T22:59:58.980Z,12.23
2023-08-14T23:02:25.614Z,15.73
2023-08-14T23:04:52.239Z,15.00
2023-08-14T23:07:19.058Z,15.20
2023-08-14T23:09:45.890Z,15.40
2023-08-14T23:12:12.473Z,15.37
2023-08-14T23:14:39.108Z,14.02
2023-08-14T23:17:05.798Z,17.67
2023-08-14T23:19:32.279Z,18.45
2023-08-14T23:21:59.196Z,10.87
2023-08-14T23:24:25.819Z,14.47
2023-08-14T23:26:52.399Z,15.02
2023-08-14T23:29:18.890Z,11.53
2023-08-14T23:31:45.829Z,14.10
2023-08-14T23:34:12.358Z,15.03
2023-08-14T23:36:38.895Z,14.57
2023-08-14T23:39:05.913Z,16.63
2023-08-14T23:41:33.354Z,15.87
2023-08-14T23:43:59.864Z,18.27
2023-08-14T23:46:26.672Z,17.07
2023-08-14T23:48:53.216Z,15.07
2023-08-14T23:51:19.983Z,13.85
2023-08-14T23:53:46.513Z,15.70
2023-08-14T23:56:13.178Z,13.57
2023-08-14T23:58:39.645Z,16.57
